Frens, South Carolina
Current Conditions -  °F | °C
As of 4:15 AM on Thursday 27 Nov 2014 (Local Time) from KSMS Reporting Station
Broken Clouds Broken Clouds  
Wind Chill: 40°   Ceiling: 7500
Heat Index: 43°   Visibility: 10mi
Dew Point: 37°   Wind: 5mph
Humidity: 81%   Direction: 190°S
Pressure: 30.03"   Gusts: NA
Location:  33.9242°N, 80.1986°W
Report Text: KSMS 270915Z AUTO 19004KT 10SM BKN075 BKN100 06/03 A3003 RMK AO2
Loading
Personal Weather Stations






























Interactive Weather Map New forecast layout! Learn more

10-Day Weather Forecast

Advertisements
Track Severe Weather on mobile